sensor_id;sensor_type;location;lat;lon;timestamp;pressure;altitude;pressure_sealevel;temperature;humidity
75923;BME280;64602;47.542;19.090;2023-05-31T04:24:54;100652.84;;;17.72;60.05
75923;BME280;64602;47.542;19.090;2023-05-31T04:29:56;100655.00;;;17.76;60.02
75923;BME280;64602;47.542;19.090;2023-05-31T04:35:03;100645.06;;;17.80;59.77
75923;BME280;64602;47.542;19.090;2023-05-31T04:40:06;100655.19;;;17.84;59.61
75923;BME280;64602;47.542;19.090;2023-05-31T04:45:11;100665.00;;;17.90;59.80
75923;BME280;64602;47.542;19.090;2023-05-31T04:50:13;100672.28;;;18.00;59.43
75923;BME280;64602;47.542;19.090;2023-05-31T04:55:15;100661.38;;;17.95;59.22
75923;BME280;64602;47.542;19.090;2023-05-31T05:00:19;100673.63;;;18.03;59.13
75923;BME280;64602;47.542;19.090;2023-05-31T05:05:22;100669.00;;;17.98;59.31
75923;BME280;64602;47.542;19.090;2023-05-31T05:10:25;100685.31;;;18.13;59.61
75923;BME280;64602;47.542;19.090;2023-05-31T05:15:27;100687.31;;;18.27;58.90
75923;BME280;64602;47.542;19.090;2023-05-31T05:20:29;100692.06;;;18.40;58.39
75923;BME280;64602;47.542;19.090;2023-05-31T05:25:31;100685.25;;;18.37;57.99
75923;BME280;64602;47.542;19.090;2023-05-31T05:30:33;100695.56;;;18.46;57.81
75923;BME280;64602;47.542;19.090;2023-05-31T05:35:36;100688.94;;;18.47;57.78
75923;BME280;64602;47.542;19.090;2023-05-31T05:40:38;100682.19;;;18.39;57.58
75923;BME280;64602;47.542;19.090;2023-05-31T05:45:40;100692.72;;;18.51;57.51
75923;BME280;64602;47.542;19.090;2023-05-31T05:50:42;100690.78;;;18.51;57.72
75923;BME280;64602;47.542;19.090;2023-05-31T05:55:49;100703.19;;;18.68;57.48
75923;BME280;64602;47.542;19.090;2023-05-31T06:00:52;100693.19;;;18.77;58.24
75923;BME280;64602;47.542;19.090;2023-05-31T06:05:54;100697.00;;;18.95;58.07
75923;BME280;64602;47.542;19.090;2023-05-31T06:10:56;100705.81;;;19.11;57.33
75923;BME280;64602;47.542;19.090;2023-05-31T06:15:59;100690.28;;;19.20;56.61
75923;BME280;64602;47.542;19.090;2023-05-31T06:21:01;100712.09;;;19.44;56.47
75923;BME280;64602;47.542;19.090;2023-05-31T06:26:04;100706.62;;;19.58;55.51
75923;BME280;64602;47.542;19.090;2023-05-31T06:31:06;100698.06;;;19.73;55.13
75923;BME280;64602;47.542;19.090;2023-05-31T06:36:10;100710.81;;;19.83;55.01
75923;BME280;64602;47.542;19.090;2023-05-31T06:41:12;100709.44;;;19.85;54.38
75923;BME280;64602;47.542;19.090;2023-05-31T06:46:15;100712.78;;;19.96;54.17
75923;BME280;64602;47.542;19.090;2023-05-31T06:51:17;100702.84;;;20.09;54.16
75923;BME280;64602;47.542;19.090;2023-05-31T06:56:21;100710.31;;;20.22;54.39
75923;BME280;64602;47.542;19.090;2023-05-31T07:01:24;100703.53;;;20.28;54.01
75923;BME280;64602;47.542;19.090;2023-05-31T07:06:28;100711.66;;;20.47;54.22
75923;BME280;64602;47.542;19.090;2023-05-31T07:11:30;100720.62;;;20.67;54.41
75923;BME280;64602;47.542;19.090;2023-05-31T07:16:32;100722.06;;;20.87;53.90
75923;BME280;64602;47.542;19.090;2023-05-31T07:21:35;100714.91;;;21.08;51.69
75923;BME280;64602;47.542;19.090;2023-05-31T07:26:38;100719.09;;;21.28;49.15
75923;BME280;64602;47.542;19.090;2023-05-31T07:31:40;100714.31;;;21.43;48.43
75923;BME280;64602;47.542;19.090;2023-05-31T07:36:42;100716.06;;;21.61;47.74
75923;BME280;64602;47.542;19.090;2023-05-31T07:41:44;100713.03;;;21.80;47.72
75923;BME280;64602;47.542;19.090;2023-05-31T07:46:46;100729.34;;;21.99;47.06
75923;BME280;64602;47.542;19.090;2023-05-31T07:51:48;100716.03;;;22.10;45.81
75923;BME280;64602;47.542;19.090;2023-05-31T07:56:51;100706.34;;;22.21;45.72
75923;BME280;64602;47.542;19.090;2023-05-31T08:01:53;100717.75;;;22.46;45.34
75923;BME280;64602;47.542;19.090;2023-05-31T08:06:55;100708.81;;;22.57;44.65
75923;BME280;64602;47.542;19.090;2023-05-31T08:11:57;100713.19;;;22.76;44.08
75923;BME280;64602;47.542;19.090;2023-05-31T08:16:59;100725.56;;;22.96;43.81
75923;BME280;64602;47.542;19.090;2023-05-31T08:22:02;100726.22;;;23.19;43.68
75923;BME280;64602;47.542;19.090;2023-05-31T08:27:04;100716.56;;;23.25;42.72
75923;BME280;64602;47.542;19.090;2023-05-31T08:32:07;100726.59;;;23.47;42.06
75923;BME280;64602;47.542;19.090;2023-05-31T08:37:09;100720.34;;;23.76;42.46
75923;BME280;64602;47.542;19.090;2023-05-31T08:42:19;100730.00;;;24.00;41.46
75923;BME280;64602;47.542;19.090;2023-05-31T08:47:36;100721.37;;;24.22;41.57
75923;BME280;64602;47.542;19.090;2023-05-31T08:52:40;100711.59;;;24.25;40.22
75923;BME280;64602;47.542;19.090;2023-05-31T08:57:43;100720.38;;;24.57;40.97
75923;BME280;64602;47.542;19.090;2023-05-31T09:02:50;100714.09;;;24.81;40.76
75923;BME280;64602;47.542;19.090;2023-05-31T09:07:53;100722.09;;;25.03;39.85
75923;BME280;64602;47.542;19.090;2023-05-31T09:12:56;100716.38;;;25.21;39.66
75923;BME280;64602;47.542;19.090;2023-05-31T09:18:12;100705.84;;;25.26;39.41
75923;BME280;64602;47.542;19.090;2023-05-31T09:23:18;100711.69;;;25.70;39.69
75923;BME280;64602;47.542;19.090;2023-05-31T09:28:21;100710.56;;;25.71;39.44
75923;BME280;64602;47.542;19.090;2023-05-31T09:33:37;100713.09;;;26.13;39.13
75923;BME280;64602;47.542;19.090;2023-05-31T09:38:40;100700.22;;;26.21;39.47
75923;BME280;64602;47.542;19.090;2023-05-31T09:43:43;100696.06;;;26.27;38.99
75923;BME280;64602;47.542;19.090;2023-05-31T09:49:06;100695.97;;;26.52;38.62
75923;BME280;64602;47.542;19.090;2023-05-31T09:54:13;100698.19;;;26.86;38.19
75923;BME280;64602;47.542;19.090;2023-05-31T09:59:16;100694.28;;;27.03;38.19
75923;BME280;64602;47.542;19.090;2023-05-31T10:04:19;100693.34;;;27.27;37.33
75923;BME280;64602;47.542;19.090;2023-05-31T10:09:22;100699.31;;;27.58;36.94
75923;BME280;64602;47.542;19.090;2023-05-31T10:14:25;100688.59;;;27.91;36.94
75923;BME280;64602;47.542;19.090;2023-05-31T10:19:38;100688.41;;;28.00;36.78
75923;BME280;64602;47.542;19.090;2023-05-31T10:24:51;100686.41;;;28.01;35.93
75923;BME280;64602;47.542;19.090;2023-05-31T10:29:56;100665.34;;;28.03;36.16
75923;BME280;64602;47.542;19.090;2023-05-31T10:34:58;100685.16;;;28.33;35.64
75923;BME280;64602;47.542;19.090;2023-05-31T10:40:23;100674.03;;;28.53;34.78
75923;BME280;64602;47.542;19.090;2023-05-31T10:45:33;100664.91;;;28.75;33.48
75923;BME280;64602;47.542;19.090;2023-05-31T10:50:53;100664.16;;;28.59;34.17
75923;BME280;64602;47.542;19.090;2023-05-31T10:56:03;100674.00;;;28.92;33.96
75923;BME280;64602;47.542;19.090;2023-05-31T11:01:16;100667.28;;;29.16;34.11
75923;BME280;64602;47.542;19.090;2023-05-31T11:06:29;100657.28;;;29.15;33.23
75923;BME280;64602;47.542;19.090;2023-05-31T11:26:56;100644.28;;;28.45;34.42
75923;BME280;64602;47.542;19.090;2023-05-31T11:31:59;100634.06;;;27.78;35.12
75923;BME280;64602;47.542;19.090;2023-05-31T11:37:04;100633.94;;;28.06;35.29
75923;BME280;64602;47.542;19.090;2023-05-31T11:42:07;100624.22;;;27.65;36.45
75923;BME280;64602;47.542;19.090;2023-05-31T11:47:10;100623.44;;;28.19;35.88
75923;BME280;64602;47.542;19.090;2023-05-31T11:52:19;100624.63;;;28.38;35.18
75923;BME280;64602;47.542;19.090;2023-05-31T11:57:22;100621.91;;;28.80;34.35
75923;BME280;64602;47.542;19.090;2023-05-31T12:02:24;100613.19;;;28.62;35.20
75923;BME280;64602;47.542;19.090;2023-05-31T12:07:27;100623.47;;;27.68;34.94
75923;BME280;64602;47.542;19.090;2023-05-31T12:12:29;100609.81;;;27.15;35.37
75923;BME280;64602;47.542;19.090;2023-05-31T12:17:32;100598.66;;;27.15;36.85
75923;BME280;64602;47.542;19.090;2023-05-31T12:22:34;100599.34;;;27.91;34.46
75923;BME280;64602;47.542;19.090;2023-05-31T12:27:36;100598.44;;;27.87;33.55
75923;BME280;64602;47.542;19.090;2023-05-31T12:32:45;100606.50;;;28.47;33.53
75923;BME280;64602;47.542;19.090;2023-05-31T12:37:50;100592.87;;;29.08;32.95
75923;BME280;64602;47.542;19.090;2023-05-31T12:42:59;100581.75;;;28.46;32.60
75923;BME280;64602;47.542;19.090;2023-05-31T12:48:02;100585.34;;;29.12;32.64
75923;BME280;64602;47.542;19.090;2023-05-31T12:53:05;100574.38;;;29.49;30.90
75923;BME280;64602;47.542;19.090;2023-05-31T12:58:08;100581.16;;;29.75;29.50
75923;BME280;64602;47.542;19.090;2023-05-31T13:03:10;100568.81;;;30.10;28.96
75923;BME280;64602;47.542;19.090;2023-05-31T13:08:16;100581.94;;;30.70;29.26
75923;BME280;64602;47.542;19.090;2023-05-31T13:13:18;100573.84;;;30.61;28.47
75923;BME280;64602;47.542;19.090;2023-05-31T13:18:20;100567.72;;;30.85;27.67
75923;BME280;64602;47.542;19.090;2023-05-31T13:23:22;100563.00;;;31.45;27.07
75923;BME280;64602;47.542;19.090;2023-05-31T13:28:25;100558.19;;;31.42;26.44
75923;BME280;64602;47.542;19.090;2023-05-31T13:33:27;100547.06;;;31.60;26.06
75923;BME280;64602;47.542;19.090;2023-05-31T13:38:30;100546.31;;;31.70;26.11
75923;BME280;64602;47.542;19.090;2023-05-31T13:43:32;100542.78;;;31.80;26.05
75923;BME280;64602;47.542;19.090;2023-05-31T13:48:35;100536.13;;;32.17;25.93
75923;BME280;64602;47.542;19.090;2023-05-31T13:53:38;100533.72;;;32.12;25.76
75923;BME280;64602;47.542;19.090;2023-05-31T13:58:43;100528.06;;;32.08;25.77
75923;BME280;64602;47.542;19.090;2023-05-31T14:03:45;100522.13;;;32.24;25.96
75923;BME280;64602;47.542;19.090;2023-05-31T14:08:48;100514.25;;;31.75;25.92
75923;BME280;64602;47.542;19.090;2023-05-31T14:13:50;100523.06;;;31.66;26.18
75923;BME280;64602;47.542;19.090;2023-05-31T14:18:53;100509.75;;;31.52;26.12
75923;BME280;64602;47.542;19.090;2023-05-31T14:23:56;100512.97;;;31.54;26.57
75923;BME280;64602;47.542;19.090;2023-05-31T14:28:59;100498.75;;;31.25;26.87
75923;BME280;64602;47.542;19.090;2023-05-31T14:34:01;100511.63;;;31.37;26.89
75923;BME280;64602;47.542;19.090;2023-05-31T14:39:03;100506.66;;;31.71;26.92
75923;BME280;64602;47.542;19.090;2023-05-31T14:44:05;100505.00;;;31.63;26.44
75923;BME280;64602;47.542;19.090;2023-05-31T14:49:08;100514.19;;;31.60;26.03
75923;BME280;64602;47.542;19.090;2023-05-31T14:54:10;100514.03;;;31.32;26.10
75923;BME280;64602;47.542;19.090;2023-05-31T14:59:12;100495.72;;;30.97;25.73
75923;BME280;64602;47.542;19.090;2023-05-31T15:04:15;100496.53;;;30.97;25.82
75923;BME280;64602;47.542;19.090;2023-05-31T15:09:17;100503.66;;;30.84;25.88
75923;BME280;64602;47.542;19.090;2023-05-31T15:14:20;100492.00;;;30.37;26.18
75923;BME280;64602;47.542;19.090;2023-05-31T15:19:22;100495.66;;;30.45;26.35
75923;BME280;64602;47.542;19.090;2023-05-31T15:24:24;100489.78;;;30.20;26.34
75923;BME280;64602;47.542;19.090;2023-05-31T15:29:27;100482.31;;;29.97;26.20
75923;BME280;64602;47.542;19.090;2023-05-31T15:34:29;100476.84;;;29.74;26.64
75923;BME280;64602;47.542;19.090;2023-05-31T15:39:31;100479.06;;;29.61;26.71
75923;BME280;64602;47.542;19.090;2023-05-31T15:44:33;100465.16;;;29.38;27.11
75923;BME280;64602;47.542;19.090;2023-05-31T15:49:35;100474.97;;;29.25;26.94
75923;BME280;64602;47.542;19.090;2023-05-31T15:54:38;100462.12;;;28.97;26.90
75923;BME280;64602;47.542;19.090;2023-05-31T15:59:40;100454.06;;;28.66;27.47
75923;BME280;64602;47.542;19.090;2023-05-31T16:04:42;100458.00;;;28.42;27.60
75923;BME280;64602;47.542;19.090;2023-05-31T16:09:44;100446.03;;;27.99;28.92
75923;BME280;64602;47.542;19.090;2023-05-31T16:14:46;100448.38;;;27.58;29.84
75923;BME280;64602;47.542;19.090;2023-05-31T16:19:48;100461.13;;;27.39;30.24
75923;BME280;64602;47.542;19.090;2023-05-31T16:24:53;100443.19;;;27.21;30.71
75923;BME280;64602;47.542;19.090;2023-05-31T16:29:55;100439.81;;;26.96;30.77
75923;BME280;64602;47.542;19.090;2023-05-31T16:34:57;100452.94;;;26.79;31.27
75923;BME280;64602;47.542;19.090;2023-05-31T16:39:59;100449.53;;;26.54;31.71
75923;BME280;64602;47.542;19.090;2023-05-31T16:45:04;100453.28;;;26.46;32.40
75923;BME280;64602;47.542;19.090;2023-05-31T16:50:07;100448.75;;;26.26;32.36
75923;BME280;64602;47.542;19.090;2023-05-31T16:55:09;100454.50;;;26.17;33.38
75923;BME280;64602;47.542;19.090;2023-05-31T17:00:13;100459.41;;;26.08;34.02
75923;BME280;64602;47.542;19.090;2023-05-31T17:05:15;100458.31;;;25.96;34.06
75923;BME280;64602;47.542;19.090;2023-05-31T17:10:17;100459.97;;;25.85;35.03
75923;BME280;64602;47.542;19.090;2023-05-31T17:15:20;100464.84;;;25.76;35.23
75923;BME280;64602;47.542;19.090;2023-05-31T17:20:22;100459.34;;;25.64;35.54
75923;BME280;64602;47.542;19.090;2023-05-31T17:25:24;100463.19;;;25.59;37.10
75923;BME280;64602;47.542;19.090;2023-05-31T17:30:28;100449.91;;;25.40;36.36
75923;BME280;64602;47.542;19.090;2023-05-31T17:35:30;100457.00;;;25.25;35.53
75923;BME280;64602;47.542;19.090;2023-05-31T17:40:32;100449.47;;;25.13;36.25
75923;BME280;64602;47.542;19.090;2023-05-31T17:45:34;100450.28;;;25.02;36.80
75923;BME280;64602;47.542;19.090;2023-05-31T17:50:37;100460.00;;;24.95;37.35
75923;BME280;64602;47.542;19.090;2023-05-31T17:55:39;100462.44;;;24.85;38.30
75923;BME280;64602;47.542;19.090;2023-05-31T18:00:42;100464.06;;;24.73;40.14
75923;BME280;64602;47.542;19.090;2023-05-31T18:05:44;100460.19;;;24.53;39.80
75923;BME280;64602;47.542;19.090;2023-05-31T18:10:46;100466.97;;;24.44;40.50
75923;BME280;64602;47.542;19.090;2023-05-31T18:15:48;100466.38;;;24.26;40.56
75923;BME280;64602;47.542;19.090;2023-05-31T18:20:51;100464.69;;;24.13;40.99
75923;BME280;64602;47.542;19.090;2023-05-31T18:25:53;100464.28;;;23.89;41.26
75923;BME280;64602;47.542;19.090;2023-05-31T18:30:55;100457.09;;;23.67;41.97
75923;BME280;64602;47.542;19.090;2023-05-31T18:35:57;100458.38;;;23.49;42.65
75923;BME280;64602;47.542;19.090;2023-05-31T18:41:00;100479.66;;;23.36;43.46
75923;BME280;64602;47.542;19.090;2023-05-31T18:46:02;100472.16;;;23.16;44.10
75923;BME280;64602;47.542;19.090;2023-05-31T18:51:04;100467.66;;;23.02;44.52
75923;BME280;64602;47.542;19.090;2023-05-31T18:56:07;100485.91;;;22.95;44.87
75923;BME280;64602;47.542;19.090;2023-05-31T19:01:10;100498.78;;;22.91;45.25
75923;BME280;64602;47.542;19.090;2023-05-31T19:06:12;100500.31;;;22.79;45.56
75923;BME280;64602;47.542;19.090;2023-05-31T19:11:15;100497.06;;;22.69;46.13
75923;BME280;64602;47.542;19.090;2023-05-31T19:16:17;100509.81;;;22.52;47.08
75923;BME280;64602;47.542;19.090;2023-05-31T19:21:19;100514.59;;;22.34;47.75
75923;BME280;64602;47.542;19.090;2023-05-31T19:26:21;100519.94;;;22.13;48.21
75923;BME280;64602;47.542;19.090;2023-05-31T19:31:24;100525.00;;;22.11;48.59
75923;BME280;64602;47.542;19.090;2023-05-31T19:36:26;100532.66;;;21.97;49.32
75923;BME280;64602;47.542;19.090;2023-05-31T19:41:28;100530.53;;;21.85;49.72
75923;BME280;64602;47.542;19.090;2023-05-31T19:46:31;100514.09;;;21.71;49.68
75923;BME280;64602;47.542;19.090;2023-05-31T19:51:33;100528.56;;;21.68;50.23
75923;BME280;64602;47.542;19.090;2023-05-31T19:56:35;100526.13;;;21.67;50.62
75923;BME280;64602;47.542;19.090;2023-05-31T20:01:37;100542.88;;;21.70;50.77
75923;BME280;64602;47.542;19.090;2023-05-31T20:06:39;100557.31;;;21.67;51.25
75923;BME280;64602;47.542;19.090;2023-05-31T20:11:42;100560.22;;;21.62;51.16
75923;BME280;64602;47.542;19.090;2023-05-31T20:16:44;100548.50;;;21.48;51.21
75923;BME280;64602;47.542;19.090;2023-05-31T20:21:47;100553.06;;;21.44;51.62
75923;BME280;64602;47.542;19.090;2023-05-31T20:26:50;100536.72;;;21.25;51.68
75923;BME280;64602;47.542;19.090;2023-05-31T20:31:52;100543.50;;;21.19;50.74
75923;BME280;64602;47.542;19.090;2023-05-31T20:36:54;100542.69;;;21.09;49.82
75923;BME280;64602;47.542;19.090;2023-05-31T20:41:57;100547.22;;;21.05;49.47
75923;BME280;64602;47.542;19.090;2023-05-31T20:46:59;100545.25;;;20.97;49.19
75923;BME280;64602;47.542;19.090;2023-05-31T20:52:01;100541.94;;;20.86;49.50
75923;BME280;64602;47.542;19.090;2023-05-31T20:57:06;100551.12;;;20.73;50.09
75923;BME280;64602;47.542;19.090;2023-05-31T21:02:09;100542.81;;;20.64;50.48
75923;BME280;64602;47.542;19.090;2023-05-31T21:07:12;100547.66;;;20.59;51.99
